Time;durP1;ratioP1;P1;durP2;ratioP2;P2;SDS_P1;SDS_P2;PMS_P1;PMS_P2;Temp;Humidity;BMP_temperature;BMP_pressure;BME280_temperature;BME280_humidity;BME280_pressure;Samples;Min_cycle;Max_cycle;Signal;HPM_P1;HPM_P2
2022/09/12 00:01:55;;;;;;;2.90;2.60;;;;;;;;;;5120525;28;20199;-71
2022/09/12 00:04:25;;;;;;;2.63;2.50;;;;;;;;;;5120177;28;20223;-71
2022/09/12 00:06:53;;;;;;;2.67;2.22;;;;;;;;;;5120732;28;20202;-71
2022/09/12 00:09:20;;;;;;;2.60;2.40;;;;;;;;;;5120606;28;20203;-72
2022/09/12 00:11:48;;;;;;;2.83;2.63;;;;;;;;;;5120528;28;20253;-71
2022/09/12 00:14:17;;;;;;;2.50;2.40;;;;;;;;;;5138109;27;20195;-71
2022/09/12 00:16:44;;;;;;;2.70;2.50;;;;;;;;;;5140506;27;20202;-71
2022/09/12 00:19:12;;;;;;;2.60;2.40;;;;;;;;;;5140972;27;20233;-71
2022/09/12 00:21:41;;;;;;;2.42;2.33;;;;;;;;;;5140644;27;20241;-71
2022/09/12 00:24:10;;;;;;;2.75;2.55;;;;;;;;;;5140886;27;20225;-71
2022/09/12 00:26:37;;;;;;;2.58;2.38;;;;;;;;;;5140400;27;20297;-71
2022/09/12 00:29:05;;;;;;;2.83;2.63;;;;;;;;;;5140758;27;20206;-71
2022/09/12 00:31:32;;;;;;;2.65;2.45;;;;;;;;;;5140217;27;20202;-71
2022/09/12 00:34:01;;;;;;;2.47;2.33;;;;;;;;;;5140178;27;20265;-71
2022/09/12 00:36:29;;;;;;;2.90;2.70;;;;;;;;;;5140782;27;20202;-70
2022/09/12 00:38:58;;;;;;;3.10;2.90;;;;;;;;;;5129680;27;20269;-71
2022/09/12 00:41:26;;;;;;;2.50;2.40;;;;;;;;;;5119758;28;20203;-71
2022/09/12 00:43:53;;;;;;;2.60;2.50;;;;;;;;;;5119784;28;20227;-71
2022/09/12 00:46:29;;;;;;;2.95;2.75;;;;;;;;;;5120066;28;20194;-71
2022/09/12 00:48:59;;;;;;;2.78;2.58;;;;;;;;;;5119943;28;20739;-71
2022/09/12 00:51:27;;;;;;;2.90;2.70;;;;;;;;;;5119535;28;20203;-71
2022/09/12 00:53:55;;;;;;;2.47;2.38;;;;;;;;;;5119456;28;20218;-72
2022/09/12 00:56:25;;;;;;;2.70;2.58;;;;;;;;;;5119174;28;20213;-71
2022/09/12 00:58:55;;;;;;;2.85;2.65;;;;;;;;;;5118972;28;20473;-70
2022/09/12 01:01:23;;;;;;;2.92;2.72;;;;;;;;;;5119495;28;20210;-71
2022/09/12 01:03:50;;;;;;;2.78;2.58;;;;;;;;;;5119252;28;20226;-72
2022/09/12 01:06:21;;;;;;;3.03;2.83;;;;;;;;;;5127351;27;20489;-72
2022/09/12 01:08:49;;;;;;;2.92;2.72;;;;;;;;;;5140399;27;20224;-71
2022/09/12 01:11:16;;;;;;;2.47;2.38;;;;;;;;;;5140169;27;20202;-71
2022/09/12 01:13:46;;;;;;;2.65;2.45;;;;;;;;;;5139999;27;20226;-71
2022/09/12 01:16:14;;;;;;;2.60;2.40;;;;;;;;;;5139820;27;20202;-70
2022/09/12 01:18:55;;;;;;;2.50;2.40;;;;;;;;;;5139816;27;20202;-71
2022/09/12 01:21:27;;;;;;;2.70;2.50;;;;;;;;;;5138872;27;20202;-71
2022/09/12 01:24:08;;;;;;;2.70;2.50;;;;;;;;;;5140111;27;20590;-70
2022/09/12 01:26:49;;;;;;;2.22;2.13;;;;;;;;;;5139580;27;20468;-70
2022/09/12 01:29:27;;;;;;;2.53;2.42;;;;;;;;;;5140111;27;20202;-71
2022/09/12 01:32:00;;;;;;;2.58;2.47;;;;;;;;;;5129498;27;20214;-71
2022/09/12 01:34:31;;;;;;;2.70;2.50;;;;;;;;;;5127709;27;20222;-71
2022/09/12 01:37:02;;;;;;;2.40;2.30;;;;;;;;;;5139473;27;20213;-71
2022/09/12 01:39:31;;;;;;;2.60;2.50;;;;;;;;;;5118621;28;20214;-71
2022/09/12 01:42:09;;;;;;;2.60;2.40;;;;;;;;;;5119350;28;20465;-71
2022/09/12 01:44:38;;;;;;;2.40;2.30;;;;;;;;;;5118686;28;20248;-71
2022/09/12 01:47:10;;;;;;;2.30;2.20;;;;;;;;;;5118572;28;20465;-71
2022/09/12 01:49:41;;;;;;;2.53;2.33;;;;;;;;;;5119360;28;20535;-71
2022/09/12 01:52:11;;;;;;;2.35;2.25;;;;;;;;;;5118292;28;20202;-71
2022/09/12 01:54:41;;;;;;;2.70;2.50;;;;;;;;;;5119051;28;20191;-71
2022/09/12 01:57:11;;;;;;;2.40;2.25;;;;;;;;;;5118505;28;20203;-71
2022/09/12 01:59:41;;;;;;;2.20;2.10;;;;;;;;;;5132825;27;20198;-71
2022/09/12 02:02:12;;;;;;;2.55;2.35;;;;;;;;;;5138636;27;20233;-71
2022/09/12 02:04:41;;;;;;;2.50;2.40;;;;;;;;;;5139031;27;20233;-71
2022/09/12 02:07:11;;;;;;;2.85;2.65;;;;;;;;;;5138411;27;20589;-71
2022/09/12 02:09:42;;;;;;;2.33;2.22;;;;;;;;;;5139084;27;20214;-71
2022/09/12 02:12:12;;;;;;;2.47;2.38;;;;;;;;;;5138944;27;20232;-70
2022/09/12 02:14:43;;;;;;;2.35;2.25;;;;;;;;;;5138803;27;20474;-71
2022/09/12 02:17:12;;;;;;;2.47;2.38;;;;;;;;;;5138808;27;20225;-71
2022/09/12 02:19:41;;;;;;;2.35;2.25;;;;;;;;;;5138057;27;20499;-71
2022/09/12 02:22:10;;;;;;;2.33;2.22;;;;;;;;;;5138404;27;20206;-71
2022/09/12 02:24:39;;;;;;;2.63;2.42;;;;;;;;;;5129604;27;20521;-71
2022/09/12 02:27:09;;;;;;;2.40;2.30;;;;;;;;;;5132321;27;20217;-71
2022/09/12 02:29:36;;;;;;;2.40;2.30;;;;;;;;;;5138304;27;20217;-71
2022/09/12 02:32:06;;;;;;;2.45;2.35;;;;;;;;;;5138940;27;20214;-71
2022/09/12 02:34:42;;;;;;;2.25;2.15;;;;;;;;;;5138667;27;20252;-71
2022/09/12 02:37:17;;;;;;;2.13;2.03;;;;;;;;;;5138772;27;20213;-71
2022/09/12 02:39:45;;;;;;;2.50;2.40;;;;;;;;;;5139163;27;20202;-71
2022/09/12 02:42:12;;;;;;;2.30;2.10;;;;;;;;;;5138938;27;20202;-71
2022/09/12 02:44:40;;;;;;;2.30;2.20;;;;;;;;;;5138404;28;20229;-72
2022/09/12 02:47:10;;;;;;;2.65;2.50;;;;;;;;;;5138274;27;20578;-71
2022/09/12 02:49:39;;;;;;;2.40;2.30;;;;;;;;;;5138300;27;20202;-71
2022/09/12 02:52:07;;;;;;;2.08;1.98;;;;;;;;;;5137180;27;20205;-71
2022/09/12 02:54:36;;;;;;;2.15;2.05;;;;;;;;;;5137326;28;20198;-72
2022/09/12 02:57:04;;;;;;;2.38;2.28;;;;;;;;;;5137263;28;20194;-71
2022/09/12 02:59:31;;;;;;;2.13;2.03;;;;;;;;;;5137833;28;20202;-71
2022/09/12 03:02:15;;;;;;;2.10;2.00;;;;;;;;;;5137461;28;20708;-71
2022/09/12 03:04:49;;;;;;;2.17;2.08;;;;;;;;;;5137356;28;20325;-71
2022/09/12 03:07:19;;;;;;;2.05;1.95;;;;;;;;;;5137331;28;20212;-71
2022/09/12 03:09:48;;;;;;;2.40;2.22;;;;;;;;;;5137533;28;20210;-71
2022/09/12 03:12:21;;;;;;;2.00;1.90;;;;;;;;;;5137685;28;20293;-71
2022/09/12 03:14:53;;;;;;;2.17;2.08;;;;;;;;;;5137431;28;20203;-71
2022/09/12 03:17:25;;;;;;;2.00;1.90;;;;;;;;;;5137122;28;20194;-71
2022/09/12 03:19:59;;;;;;;2.50;2.30;;;;;;;;;;5137600;27;20213;-71
2022/09/12 03:22:29;;;;;;;2.15;2.05;;;;;;;;;;5137339;27;20202;-72
2022/09/12 03:25:03;;;;;;;2.30;2.20;;;;;;;;;;5136899;27;20233;-71
2022/09/12 03:27:33;;;;;;;1.90;1.80;;;;;;;;;;5136731;28;20213;-71
2022/09/12 03:30:01;;;;;;;2.10;2.00;;;;;;;;;;5137246;28;20209;-72
2022/09/12 03:32:41;;;;;;;2.20;2.10;;;;;;;;;;5137064;27;20352;-71
2022/09/12 03:35:10;;;;;;;1.90;1.80;;;;;;;;;;5141145;27;20214;-71
2022/09/12 03:37:38;;;;;;;1.90;1.80;;;;;;;;;;5140889;27;20233;-71
2022/09/12 03:40:05;;;;;;;2.03;1.92;;;;;;;;;;5141263;27;20197;-71
2022/09/12 03:42:33;;;;;;;1.90;1.80;;;;;;;;;;5141272;27;20202;-71
2022/09/12 03:45:00;;;;;;;1.70;1.60;;;;;;;;;;5140789;27;20221;-71
2022/09/12 03:47:28;;;;;;;1.80;1.70;;;;;;;;;;5139985;27;20242;-71
2022/09/12 03:49:55;;;;;;;1.75;1.65;;;;;;;;;;5140407;27;20578;-71
2022/09/12 03:52:24;;;;;;;1.80;1.70;;;;;;;;;;5141272;27;20202;-71
2022/09/12 03:54:51;;;;;;;1.65;1.55;;;;;;;;;;5132577;27;20197;-71
2022/09/12 03:57:18;;;;;;;1.80;1.70;;;;;;;;;;5140738;27;20206;-71
2022/09/12 03:59:46;;;;;;;1.50;1.40;;;;;;;;;;5140635;27;20629;-71
2022/09/12 04:02:13;;;;;;;1.80;1.70;;;;;;;;;;5140267;27;20209;-71
2022/09/12 04:04:42;;;;;;;1.70;1.60;;;;;;;;;;5139919;27;20605;-71
2022/09/12 04:07:10;;;;;;;1.50;1.40;;;;;;;;;;5140946;27;20202;-71
2022/09/12 04:09:38;;;;;;;1.50;1.40;;;;;;;;;;5140502;27;20217;-71
2022/09/12 04:12:06;;;;;;;1.70;1.60;;;;;;;;;;5129287;27;20209;-72
2022/09/12 04:14:34;;;;;;;1.70;1.60;;;;;;;;;;5119220;28;20535;-72
2022/09/12 04:17:02;;;;;;;1.60;1.50;;;;;;;;;;5119867;28;20214;-72
2022/09/12 04:19:29;;;;;;;1.67;1.58;;;;;;;;;;5119425;28;20598;-72
2022/09/12 04:21:56;;;;;;;1.70;1.60;;;;;;;;;;5119918;28;20202;-72
2022/09/12 04:24:24;;;;;;;1.52;1.42;;;;;;;;;;5119635;28;20491;-72
2022/09/12 04:26:52;;;;;;;1.60;1.50;;;;;;;;;;5119209;28;20199;-71
2022/09/12 04:29:20;;;;;;;1.50;1.40;;;;;;;;;;5119657;28;20217;-71
2022/09/12 04:31:47;;;;;;;1.60;1.50;;;;;;;;;;5126509;27;20238;-72
2022/09/12 04:34:15;;;;;;;1.55;1.45;;;;;;;;;;5139494;27;20236;-72
2022/09/12 04:36:42;;;;;;;1.60;1.50;;;;;;;;;;5139383;27;20199;-72
2022/09/12 04:39:11;;;;;;;1.35;1.10;;;;;;;;;;5139877;27;20213;-72
2022/09/12 04:41:39;;;;;;;1.52;1.42;;;;;;;;;;5139517;27;20650;-72
2022/09/12 04:44:09;;;;;;;1.50;1.40;;;;;;;;;;5138998;27;20202;-71
2022/09/12 04:46:38;;;;;;;1.40;1.40;;;;;;;;;;5139380;27;20249;-70
2022/09/12 04:49:06;;;;;;;1.63;1.52;;;;;;;;;;5139195;27;20209;-71
2022/09/12 04:51:34;;;;;;;1.35;1.30;;;;;;;;;;5138231;27;20213;-71
2022/09/12 04:54:03;;;;;;;1.17;1.17;;;;;;;;;;5137779;27;20206;-71
2022/09/12 04:56:30;;;;;;;1.45;1.35;;;;;;;;;;5138118;27;20624;-71
2022/09/12 04:58:59;;;;;;;1.50;1.40;;;;;;;;;;5135600;27;20209;-71
2022/09/12 05:01:28;;;;;;;1.30;1.30;;;;;;;;;;5137121;27;20221;-71
2022/09/12 05:03:56;;;;;;;1.23;1.23;;;;;;;;;;5137511;27;20241;-72
2022/09/12 05:06:24;;;;;;;1.60;1.50;;;;;;;;;;5137348;27;20320;-71
2022/09/12 05:08:51;;;;;;;1.50;1.40;;;;;;;;;;5136859;27;20474;-71
2022/09/12 05:11:19;;;;;;;1.42;1.33;;;;;;;;;;5137767;27;20206;-72
2022/09/12 05:13:47;;;;;;;1.20;1.20;;;;;;;;;;5136818;27;20217;-72
2022/09/12 05:16:15;;;;;;;1.40;1.30;;;;;;;;;;5137075;27;20209;-72
2022/09/12 05:18:44;;;;;;;1.13;1.13;;;;;;;;;;5136080;27;20274;-72
2022/09/12 05:21:12;;;;;;;1.30;1.20;;;;;;;;;;5136776;27;20194;-72
2022/09/12 05:23:40;;;;;;;1.35;1.25;;;;;;;;;;5136371;27;20240;-71
2022/09/12 05:26:08;;;;;;;1.10;1.10;;;;;;;;;;5121458;27;20226;-71
2022/09/12 05:28:36;;;;;;;1.10;1.10;;;;;;;;;;5135681;27;20202;-71
2022/09/12 05:31:04;;;;;;;1.27;1.20;;;;;;;;;;5136457;27;20233;-72
2022/09/12 05:33:32;;;;;;;1.10;1.10;;;;;;;;;;5136481;27;20513;-71
2022/09/12 05:36:01;;;;;;;1.40;1.30;;;;;;;;;;5136835;27;20202;-71
2022/09/12 05:38:28;;;;;;;1.10;1.10;;;;;;;;;;5136932;27;20206;-71
2022/09/12 05:40:55;;;;;;;1.02;1.02;;;;;;;;;;5136928;27;20203;-71
2022/09/12 05:43:23;;;;;;;1.38;1.27;;;;;;;;;;5136007;27;20293;-71
2022/09/12 05:45:50;;;;;;;1.15;1.15;;;;;;;;;;5136593;27;20221;-72
2022/09/12 05:48:17;;;;;;;1.40;1.30;;;;;;;;;;5136437;27;20240;-71
2022/09/12 05:50:45;;;;;;;1.15;1.10;;;;;;;;;;5135980;27;20194;-71
2022/09/12 05:53:13;;;;;;;1.23;1.13;;;;;;;;;;5137469;27;20245;-71
2022/09/12 05:55:41;;;;;;;1.08;1.08;;;;;;;;;;5135886;27;20210;-71
2022/09/12 05:58:08;;;;;;;1.10;1.10;;;;;;;;;;5135870;27;20213;-71
2022/09/12 06:00:36;;;;;;;1.00;1.00;;;;;;;;;;5136433;27;20202;-71
2022/09/12 06:03:03;;;;;;;1.10;1.10;;;;;;;;;;5136490;27;20209;-71
2022/09/12 06:05:32;;;;;;;1.10;1.10;;;;;;;;;;5135865;27;20656;-71
2022/09/12 06:08:00;;;;;;;1.00;1.00;;;;;;;;;;5136981;27;20225;-71
2022/09/12 06:10:29;;;;;;;1.40;1.30;;;;;;;;;;5136646;27;20231;-71
2022/09/12 06:12:56;;;;;;;1.00;1.00;;;;;;;;;;5137139;27;20202;-71
2022/09/12 06:15:23;;;;;;;1.15;1.15;;;;;;;;;;5136805;27;20579;-71
2022/09/12 06:17:51;;;;;;;1.17;1.17;;;;;;;;;;5128848;27;20210;-71
2022/09/12 06:20:19;;;;;;;1.05;1.05;;;;;;;;;;5132054;27;20462;-71
2022/09/12 06:22:47;;;;;;;1.20;1.10;;;;;;;;;;5136775;27;20304;-71
2022/09/12 06:25:14;;;;;;;1.00;1.00;;;;;;;;;;5136190;27;20209;-71
2022/09/12 06:27:43;;;;;;;1.00;1.00;;;;;;;;;;5136862;27;20792;-71
2022/09/12 06:30:11;;;;;;;1.63;1.10;;;;;;;;;;5136866;27;20213;-70
2022/09/12 06:32:38;;;;;;;1.05;1.02;;;;;;;;;;5135683;27;20202;-70
2022/09/12 06:35:06;;;;;;;1.27;1.17;;;;;;;;;;5116471;28;20214;-71
2022/09/12 06:37:33;;;;;;;1.15;1.05;;;;;;;;;;5115348;28;20205;-71
2022/09/12 06:40:00;;;;;;;1.95;1.10;;;;;;;;;;5115451;28;20235;-72
2022/09/12 06:42:28;;;;;;;1.10;1.10;;;;;;;;;;5115435;28;20194;-71
2022/09/12 06:44:57;;;;;;;0.93;0.93;;;;;;;;;;5115587;28;20266;-71
2022/09/12 06:47:24;;;;;;;1.65;1.10;;;;;;;;;;5115572;28;20477;-70
2022/09/12 06:49:52;;;;;;;1.20;1.10;;;;;;;;;;5106685;28;20195;-71
2022/09/12 06:52:19;;;;;;;2.55;1.30;;;;;;;;;;5115598;28;20211;-71
2022/09/12 06:54:46;;;;;;;4.68;1.17;;;;;;;;;;5115588;28;20203;-71
2022/09/12 06:57:14;;;;;;;3.28;1.30;;;;;;;;;;5115450;28;20587;-71
2022/09/12 06:59:42;;;;;;;2.15;1.20;;;;;;;;;;5115761;28;20238;-71
2022/09/12 07:02:11;;;;;;;1.70;1.25;;;;;;;;;;5115924;28;20207;-70
2022/09/12 07:04:38;;;;;;;4.15;1.10;;;;;;;;;;5115305;28;20202;-71
2022/09/12 07:07:06;;;;;;;1.98;1.00;;;;;;;;;;5116461;28;20234;-70
2022/09/12 07:09:33;;;;;;;1.30;1.10;;;;;;;;;;5119595;28;20458;-73
2022/09/12 07:12:03;;;;;;;1.60;1.15;;;;;;;;;;5118534;28;20635;-71
2022/09/12 07:14:30;;;;;;;1.00;0.95;;;;;;;;;;5120046;28;20218;-71
2022/09/12 07:16:58;;;;;;;1.40;1.10;;;;;;;;;;5119452;28;20194;-71
2022/09/12 07:19:27;;;;;;;1.35;1.25;;;;;;;;;;5119210;28;20195;-70
2022/09/12 07:21:54;;;;;;;1.20;1.10;;;;;;;;;;5119504;28;20203;-72
2022/09/12 07:24:21;;;;;;;1.35;1.23;;;;;;;;;;5119297;28;20203;-71
2022/09/12 07:26:49;;;;;;;1.17;1.15;;;;;;;;;;5119104;28;20226;-71
2022/09/12 07:29:17;;;;;;;2.78;1.30;;;;;;;;;;5119323;28;20301;-70
2022/09/12 07:31:45;;;;;;;1.20;1.10;;;;;;;;;;5118912;28;20211;-70
2022/09/12 07:34:12;;;;;;;1.17;0.90;;;;;;;;;;5111743;28;20234;-71
2022/09/12 07:36:41;;;;;;;0.82;0.82;;;;;;;;;;5117747;28;20579;-70
2022/09/12 07:39:08;;;;;;;1.02;1.00;;;;;;;;;;5119054;28;20213;-70
2022/09/12 07:41:36;;;;;;;1.00;1.00;;;;;;;;;;5119003;28;20214;-70
2022/09/12 07:44:05;;;;;;;1.20;1.10;;;;;;;;;;5118267;28;20203;-71
2022/09/12 07:46:32;;;;;;;1.20;1.10;;;;;;;;;;5117245;28;20322;-70
2022/09/12 07:49:01;;;;;;;1.00;1.00;;;;;;;;;;5118007;28;20207;-71
2022/09/12 07:51:29;;;;;;;2.40;1.73;;;;;;;;;;5118165;28;20226;-71
2022/09/12 07:53:58;;;;;;;1.35;1.25;;;;;;;;;;5117790;28;20199;-73
2022/09/12 07:56:26;;;;;;;1.10;1.10;;;;;;;;;;5118840;28;20222;-71
2022/09/12 07:58:55;;;;;;;1.23;1.13;;;;;;;;;;5118665;28;20238;-70
2022/09/12 08:01:23;;;;;;;1.20;1.10;;;;;;;;;;5118873;28;20199;-71
2022/09/12 08:03:51;;;;;;;1.20;1.15;;;;;;;;;;5117417;28;20195;-70
2022/09/12 08:06:19;;;;;;;1.00;1.00;;;;;;;;;;5118161;28;20227;-70
2022/09/12 08:08:47;;;;;;;1.40;1.30;;;;;;;;;;5118706;28;20784;-70
2022/09/12 08:11:17;;;;;;;1.23;1.13;;;;;;;;;;5119032;28;20214;-71
2022/09/12 08:13:45;;;;;;;1.27;1.17;;;;;;;;;;5118619;28;20222;-70
2022/09/12 08:16:14;;;;;;;1.30;1.20;;;;;;;;;;5118828;28;20315;-71
2022/09/12 08:18:42;;;;;;;1.00;0.90;;;;;;;;;;5116887;28;20222;-71
2022/09/12 08:21:12;;;;;;;1.15;1.10;;;;;;;;;;5117195;28;20209;-71
2022/09/12 08:23:41;;;;;;;1.00;1.00;;;;;;;;;;5117643;28;20203;-71
2022/09/12 08:26:08;;;;;;;1.15;1.10;;;;;;;;;;5117397;28;20223;-71
2022/09/12 08:28:39;;;;;;;1.27;1.10;;;;;;;;;;5117673;28;20207;-71
2022/09/12 08:31:07;;;;;;;1.25;1.15;;;;;;;;;;5115592;28;20269;-70
2022/09/12 08:33:35;;;;;;;1.55;1.20;;;;;;;;;;5125078;27;20273;-71
2022/09/12 08:36:05;;;;;;;1.20;1.10;;;;;;;;;;5138021;27;20202;-71
2022/09/12 08:38:33;;;;;;;1.30;1.20;;;;;;;;;;5137517;27;20198;-70
2022/09/12 08:41:03;;;;;;;1.10;1.10;;;;;;;;;;5138479;27;20635;-71
2022/09/12 08:43:35;;;;;;;1.20;1.10;;;;;;;;;;5137336;27;20202;-71
2022/09/12 08:46:09;;;;;;;1.38;1.20;;;;;;;;;;5138014;27;20608;-71
2022/09/12 08:48:37;;;;;;;1.10;1.10;;;;;;;;;;5137901;27;20259;-71
2022/09/12 08:51:05;;;;;;;1.30;1.20;;;;;;;;;;5137915;27;20205;-71
2022/09/12 08:53:34;;;;;;;1.10;1.10;;;;;;;;;;5137917;27;20713;-71
2022/09/12 08:56:03;;;;;;;1.40;1.30;;;;;;;;;;5137317;27;20483;-71
2022/09/12 08:58:34;;;;;;;1.75;1.25;;;;;;;;;;5137717;27;20202;-70
2022/09/12 09:01:04;;;;;;;1.20;1.10;;;;;;;;;;5138420;27;20760;-72
2022/09/12 09:03:46;;;;;;;1.30;1.20;;;;;;;;;;5137960;27;20201;-71
2022/09/12 09:06:20;;;;;;;1.30;1.20;;;;;;;;;;5143742;27;20205;-72
2022/09/12 09:08:50;;;;;;;1.45;1.35;;;;;;;;;;5137438;27;20199;-70
2022/09/12 09:11:34;;;;;;;1.38;1.27;;;;;;;;;;5136785;27;20210;-72
2022/09/12 09:16:58;;;;;;;1.50;1.40;;;;;;;;;;5137207;27;20193;-71
2022/09/12 09:19:31;;;;;;;1.67;1.58;;;;;;;;;;5137503;27;20586;-71
2022/09/12 09:21:59;;;;;;;1.38;1.27;;;;;;;;;;5133979;27;20195;-71
2022/09/12 09:24:28;;;;;;;1.65;1.55;;;;;;;;;;5125086;27;20213;-71
2022/09/12 09:26:58;;;;;;;1.65;1.55;;;;;;;;;;5136795;27;20234;-71
2022/09/12 09:29:28;;;;;;;1.42;1.33;;;;;;;;;;5137045;27;20917;-71
2022/09/12 09:31:58;;;;;;;1.40;1.30;;;;;;;;;;5137305;27;20212;-74
2022/09/12 09:34:30;;;;;;;1.48;1.38;;;;;;;;;;5135956;27;20270;-71
2022/09/12 09:37:04;;;;;;;1.90;1.80;;;;;;;;;;5137183;27;20238;-71
2022/09/12 09:39:39;;;;;;;1.45;1.35;;;;;;;;;;5136854;27;20296;-71
2022/09/12 09:42:13;;;;;;;1.50;1.40;;;;;;;;;;5135827;27;20208;-71
2022/09/12 09:44:41;;;;;;;1.98;1.88;;;;;;;;;;5136612;27;20836;-71
2022/09/12 09:47:10;;;;;;;1.50;1.40;;;;;;;;;;5136602;27;20709;-71
2022/09/12 09:49:39;;;;;;;1.60;1.50;;;;;;;;;;5135378;27;20481;-71
2022/09/12 09:52:08;;;;;;;2.05;1.80;;;;;;;;;;5135580;27;20198;-71
2022/09/12 09:54:37;;;;;;;1.83;1.73;;;;;;;;;;5136122;27;20202;-71
2022/09/12 09:57:04;;;;;;;1.73;1.63;;;;;;;;;;5136326;27;20193;-71
2022/09/12 09:59:33;;;;;;;1.73;1.63;;;;;;;;;;5135549;27;20213;-71
2022/09/12 10:02:02;;;;;;;2.03;1.90;;;;;;;;;;5135715;27;20202;-71
2022/09/12 10:04:30;;;;;;;1.90;1.80;;;;;;;;;;5136381;27;20256;-71
2022/09/12 10:06:59;;;;;;;1.70;1.60;;;;;;;;;;5135301;27;20519;-71
2022/09/12 10:09:28;;;;;;;1.50;1.40;;;;;;;;;;5134962;27;20202;-72
2022/09/12 10:11:56;;;;;;;1.75;1.65;;;;;;;;;;5134905;27;20203;-71
2022/09/12 10:14:35;;;;;;;1.90;1.70;;;;;;;;;;5134439;27;20716;-71
2022/09/12 10:17:03;;;;;;;1.70;1.60;;;;;;;;;;5135208;27;20201;-71
2022/09/12 10:19:35;;;;;;;1.50;1.40;;;;;;;;;;5135222;27;20203;-71
2022/09/12 10:22:05;;;;;;;1.70;1.60;;;;;;;;;;5135773;27;20201;-71
2022/09/12 10:24:34;;;;;;;1.90;1.80;;;;;;;;;;5134527;27;20295;-71
2022/09/12 10:27:08;;;;;;;1.38;1.27;;;;;;;;;;5134949;27;20252;-71
2022/09/12 10:29:42;;;;;;;1.85;1.75;;;;;;;;;;5135449;27;20209;-71
2022/09/12 10:32:11;;;;;;;1.90;1.80;;;;;;;;;;5134898;27;20661;-71
2022/09/12 10:34:39;;;;;;;2.00;1.90;;;;;;;;;;5134970;27;20234;-71
2022/09/12 10:37:09;;;;;;;1.95;1.75;;;;;;;;;;5134833;27;20190;-71
2022/09/12 10:39:38;;;;;;;1.73;1.63;;;;;;;;;;5135365;27;20302;-71
2022/09/12 10:42:06;;;;;;;2.17;2.05;;;;;;;;;;5134984;27;20483;-71
2022/09/12 10:44:34;;;;;;;1.80;1.70;;;;;;;;;;5128736;27;20205;-71
2022/09/12 10:47:19;;;;;;;1.73;1.63;;;;;;;;;;5134516;27;20302;-71
2022/09/12 10:49:46;;;;;;;2.28;2.08;;;;;;;;;;5135295;27;20375;-71
2022/09/12 10:52:21;;;;;;;1.70;1.60;;;;;;;;;;5133927;28;20222;-71
2022/09/12 10:54:49;;;;;;;2.00;1.90;;;;;;;;;;5133714;28;20205;-71
2022/09/12 10:57:36;;;;;;;2.00;1.90;;;;;;;;;;5134037;28;20198;-71
2022/09/12 11:00:10;;;;;;;1.80;1.70;;;;;;;;;;5133977;28;20206;-71
2022/09/12 11:02:45;;;;;;;1.80;1.67;;;;;;;;;;5133132;28;20205;-72
2022/09/12 11:05:15;;;;;;;1.85;1.75;;;;;;;;;;5134468;28;20209;-71
2022/09/12 11:07:46;;;;;;;2.08;1.98;;;;;;;;;;5134463;28;20237;-71
2022/09/12 11:10:26;;;;;;;1.90;1.80;;;;;;;;;;5133712;28;20213;-70
2022/09/12 11:12:57;;;;;;;2.13;2.00;;;;;;;;;;5133070;28;20237;-72
2022/09/12 11:15:33;;;;;;;1.80;1.70;;;;;;;;;;5132991;28;20198;-70
2022/09/12 11:18:03;;;;;;;1.90;1.80;;;;;;;;;;5134657;28;20505;-71
2022/09/12 11:20:46;;;;;;;1.80;1.70;;;;;;;;;;5134697;28;20202;-71
2022/09/12 11:23:43;;;;;;;1.88;1.77;;;;;;;;;;5133672;28;20206;-71
2022/09/12 11:26:19;;;;;;;1.70;1.60;;;;;;;;;;5069414;28;20235;-72
2022/09/12 11:28:51;;;;;;;1.90;1.70;;;;;;;;;;5122926;28;20226;-72
2022/09/12 11:31:25;;;;;;;1.60;1.50;;;;;;;;;;5134801;28;20202;-71
2022/09/12 11:33:53;;;;;;;2.17;1.73;;;;;;;;;;5123169;27;20230;-71
2022/09/12 11:36:28;;;;;;;1.90;1.80;;;;;;;;;;5114175;28;20215;-72
2022/09/12 11:39:02;;;;;;;2.20;2.00;;;;;;;;;;5114511;28;20199;-71
2022/09/12 11:41:33;;;;;;;1.83;1.73;;;;;;;;;;5113879;28;20548;-71
2022/09/12 11:44:03;;;;;;;1.80;1.70;;;;;;;;;;5112122;28;20625;-72
2022/09/12 11:46:35;;;;;;;1.70;1.60;;;;;;;;;;5113400;28;20202;-71
2022/09/12 11:49:05;;;;;;;1.77;1.67;;;;;;;;;;5112710;28;20226;-71
2022/09/12 11:51:36;;;;;;;2.13;1.92;;;;;;;;;;5113370;28;20196;-71
2022/09/12 11:54:07;;;;;;;1.67;1.58;;;;;;;;;;5114387;28;20230;-71
2022/09/12 11:56:39;;;;;;;1.65;1.55;;;;;;;;;;5116470;28;20211;-71
2022/09/12 11:59:11;;;;;;;1.80;1.70;;;;;;;;;;5115776;28;20199;-71
2022/09/12 12:01:39;;;;;;;1.63;1.52;;;;;;;;;;5116134;28;20206;-71
2022/09/12 12:04:09;;;;;;;1.70;1.60;;;;;;;;;;5116095;28;20210;-71
2022/09/12 12:06:40;;;;;;;1.58;1.48;;;;;;;;;;5116371;28;20583;-70
2022/09/12 12:09:08;;;;;;;1.70;1.60;;;;;;;;;;5116778;28;20218;-71
2022/09/12 12:11:38;;;;;;;1.85;1.75;;;;;;;;;;5115583;28;20211;-71
2022/09/12 12:14:08;;;;;;;1.70;1.60;;;;;;;;;;5116838;28;20202;-71
2022/09/12 12:16:38;;;;;;;1.80;1.70;;;;;;;;;;5116582;28;20599;-71
2022/09/12 12:19:09;;;;;;;1.70;1.60;;;;;;;;;;5117218;28;20191;-71
2022/09/12 12:21:41;;;;;;;1.70;1.60;;;;;;;;;;5116769;28;20209;-71
2022/09/12 12:24:16;;;;;;;1.60;1.50;;;;;;;;;;5116853;28;20256;-71
2022/09/12 12:26:54;;;;;;;1.73;1.63;;;;;;;;;;5116509;28;20488;-71
2022/09/12 12:29:37;;;;;;;1.80;1.70;;;;;;;;;;5115349;28;20276;-71
2022/09/12 12:32:20;;;;;;;1.70;1.60;;;;;;;;;;5115323;28;20203;-70
2022/09/12 12:34:48;;;;;;;1.73;1.63;;;;;;;;;;5133694;27;20234;-71
2022/09/12 12:37:34;;;;;;;1.70;1.60;;;;;;;;;;5136560;27;20587;-70
2022/09/12 12:40:08;;;;;;;1.67;1.58;;;;;;;;;;5136116;27;20253;-70
2022/09/12 12:43:03;;;;;;;1.60;1.50;;;;;;;;;;5135355;27;20194;-72
2022/09/12 12:46:00;;;;;;;1.63;1.52;;;;;;;;;;5136463;27;20206;-72
2022/09/12 12:48:30;;;;;;;1.70;1.60;;;;;;;;;;5136401;27;20310;-71
2022/09/12 12:51:13;;;;;;;1.80;1.70;;;;;;;;;;5136369;27;20203;-70
2022/09/12 12:53:41;;;;;;;1.77;1.67;;;;;;;;;;5135947;27;20229;-72
2022/09/12 12:56:25;;;;;;;1.70;1.60;;;;;;;;;;5136178;27;20209;-72
2022/09/12 12:58:58;;;;;;;1.60;1.50;;;;;;;;;;5132847;27;20198;-72
2022/09/12 13:01:27;;;;;;;1.63;1.52;;;;;;;;;;5115322;28;20238;-72
2022/09/12 13:03:55;;;;;;;1.70;1.60;;;;;;;;;;5114496;28;20225;-72
2022/09/12 13:06:29;;;;;;;1.65;1.55;;;;;;;;;;5115429;28;20286;-72
2022/09/12 13:08:59;;;;;;;1.45;1.35;;;;;;;;;;5116016;28;20781;-72
2022/09/12 13:11:32;;;;;;;1.45;1.35;;;;;;;;;;5115938;28;20199;-73
2022/09/12 13:14:00;;;;;;;1.73;1.63;;;;;;;;;;5116511;28;20203;-71
2022/09/12 13:16:36;;;;;;;1.58;1.48;;;;;;;;;;5116303;28;20226;-70
2022/09/12 13:19:06;;;;;;;1.70;1.60;;;;;;;;;;5115681;28;20194;-71
2022/09/12 13:21:33;;;;;;;1.70;1.60;;;;;;;;;;5115352;28;20209;-71
2022/09/12 13:24:01;;;;;;;1.50;1.40;;;;;;;;;;5114218;28;20210;-72
2022/09/12 13:26:33;;;;;;;1.52;1.42;;;;;;;;;;5119338;27;20547;-71
2022/09/12 13:29:11;;;;;;;1.52;1.42;;;;;;;;;;5134192;27;20214;-71
2022/09/12 13:31:41;;;;;;;1.70;1.60;;;;;;;;;;5135491;27;20201;-71
2022/09/12 13:34:10;;;;;;;1.85;1.50;;;;;;;;;;5134838;27;20245;-71
2022/09/12 13:36:48;;;;;;;1.50;1.40;;;;;;;;;;5133841;27;20218;-71
2022/09/12 13:39:16;;;;;;;1.67;1.58;;;;;;;;;;5133957;27;20473;-70
2022/09/12 13:42:02;;;;;;;1.70;1.60;;;;;;;;;;5134082;27;20735;-70
2022/09/12 13:44:29;;;;;;;1.75;1.65;;;;;;;;;;5135874;27;20766;-71
2022/09/12 13:47:01;;;;;;;1.70;1.60;;;;;;;;;;5135768;27;20203;-71
2022/09/12 13:49:33;;;;;;;1.60;1.50;;;;;;;;;;5135308;27;20547;-72
2022/09/12 13:52:02;;;;;;;1.60;1.50;;;;;;;;;;5135137;27;20740;-71
2022/09/12 13:54:30;;;;;;;1.42;1.33;;;;;;;;;;5124512;27;20202;-71
2022/09/12 13:56:58;;;;;;;1.50;1.40;;;;;;;;;;5113295;28;20205;-70
2022/09/12 13:59:26;;;;;;;1.50;1.40;;;;;;;;;;5113475;28;20210;-71
2022/09/12 14:01:53;;;;;;;1.55;1.45;;;;;;;;;;5113892;28;20297;-71
2022/09/12 14:07:20;;;;;;;1.50;1.38;;;;;;;;;;5076680;28;20343;-71
2022/09/12 14:09:53;;;;;;;1.77;1.67;;;;;;;;;;5114499;28;20237;-71
2022/09/12 14:12:25;;;;;;;1.85;1.70;;;;;;;;;;5114544;28;20202;-71
2022/09/12 14:14:52;;;;;;;1.98;1.50;;;;;;;;;;5106698;28;20284;-71
2022/09/12 14:17:28;;;;;;;1.65;1.55;;;;;;;;;;5093066;28;20495;-71
2022/09/12 14:19:58;;;;;;;1.85;1.60;;;;;;;;;;5093426;28;20203;-70
2022/09/12 14:22:28;;;;;;;1.65;1.55;;;;;;;;;;5123387;27;20605;-71
2022/09/12 14:24:57;;;;;;;1.80;1.70;;;;;;;;;;5135115;27;20550;-71
2022/09/12 14:27:25;;;;;;;1.58;1.48;;;;;;;;;;5134797;27;20246;-72
2022/09/12 14:29:55;;;;;;;1.48;1.38;;;;;;;;;;5133490;27;20745;-71
2022/09/12 14:32:24;;;;;;;1.55;1.45;;;;;;;;;;5133650;27;20729;-70
2022/09/12 14:35:18;;;;;;;1.80;1.70;;;;;;;;;;5134184;27;20233;-71
2022/09/12 14:37:48;;;;;;;1.58;1.45;;;;;;;;;;5133809;27;20198;-70
2022/09/12 14:40:17;;;;;;;2.85;1.48;;;;;;;;;;5134123;27;20221;-71
2022/09/12 14:42:48;;;;;;;1.60;1.50;;;;;;;;;;5134156;27;20259;-71
2022/09/12 14:45:17;;;;;;;1.95;1.50;;;;;;;;;;5133990;27;20515;-71
2022/09/12 14:47:49;;;;;;;1.70;1.60;;;;;;;;;;5134313;27;20208;-71
2022/09/12 14:50:19;;;;;;;1.30;1.25;;;;;;;;;;5116706;28;20214;-71
2022/09/12 14:52:46;;;;;;;1.80;1.70;;;;;;;;;;5113653;28;20207;-71
2022/09/12 14:55:24;;;;;;;1.60;1.50;;;;;;;;;;5113790;28;20214;-71
2022/09/12 14:58:07;;;;;;;1.60;1.50;;;;;;;;;;5113647;28;20214;-71
2022/09/12 15:00:35;;;;;;;1.60;1.50;;;;;;;;;;5114266;28;20801;-70
2022/09/12 15:03:20;;;;;;;1.70;1.60;;;;;;;;;;5113639;28;20210;-70
2022/09/12 15:05:52;;;;;;;1.80;1.70;;;;;;;;;;5114290;28;20203;-72
2022/09/12 15:08:19;;;;;;;1.60;1.50;;;;;;;;;;5114238;28;20351;-71